Time;durP1;ratioP1;P1;durP2;ratioP2;P2;SDS_P1;SDS_P2;PMS_P1;PMS_P2;Temp;Humidity;BMP_temperature;BMP_pressure;BME280_temperature;BME280_humidity;BME280_pressure;Samples;Min_cycle;Max_cycle;Signal;HPM_P1;HPM_P2
2024/02/12 00:02:20;;;;;;;0.30;0.30;;;5.80;99.90;;;;;;4936548;29;21019;-79
2024/02/12 00:04:47;;;;;;;0.30;0.30;;;5.90;99.90;;;;;;4936815;29;20945;-79
2024/02/12 00:07:16;;;;;;;0.30;0.30;;;5.90;99.90;;;;;;4936438;29;20483;-79
2024/02/12 00:09:43;;;;;;;0.47;0.30;;;5.90;99.90;;;;;;4935855;29;20509;-79
2024/02/12 00:12:11;;;;;;;1.63;0.27;;;6.00;99.90;;;;;;4936986;29;20848;-79
2024/02/12 00:14:38;;;;;;;0.60;0.40;;;5.90;99.90;;;;;;4937036;29;20479;-79
2024/02/12 00:17:05;;;;;;;0.30;0.30;;;5.90;99.90;;;;;;4939838;29;20443;-79
2024/02/12 00:19:35;;;;;;;0.40;0.30;;;5.90;99.90;;;;;;4939544;29;20473;-79
2024/02/12 00:22:02;;;;;;;0.50;0.30;;;5.90;99.90;;;;;;4939664;29;20482;-79
2024/02/12 00:24:29;;;;;;;0.80;0.50;;;5.90;99.90;;;;;;4939486;29;20451;-79
2024/02/12 00:26:59;;;;;;;0.30;0.30;;;5.90;99.90;;;;;;4939382;29;20479;-79
2024/02/12 00:29:27;;;;;;;0.40;0.33;;;5.90;99.90;;;;;;4939497;29;20912;-79
2024/02/12 00:31:56;;;;;;;0.30;0.27;;;5.90;99.90;;;;;;4939300;29;20451;-79
2024/02/12 00:34:23;;;;;;;0.30;0.30;;;5.80;99.90;;;;;;4939132;29;20570;-79
2024/02/12 00:36:51;;;;;;;0.30;0.30;;;5.80;99.90;;;;;;4939197;29;20880;-79
2024/02/12 00:39:18;;;;;;;0.60;0.30;;;5.70;99.90;;;;;;4938952;29;20557;-79
2024/02/12 00:41:49;;;;;;;0.43;0.43;;;5.70;99.90;;;;;;4939145;29;20443;-79
2024/02/12 00:44:16;;;;;;;0.50;0.40;;;5.60;99.90;;;;;;4939120;29;20436;-79
2024/02/12 00:46:47;;;;;;;0.30;0.30;;;5.60;99.90;;;;;;4938920;29;20451;-79
2024/02/12 00:49:14;;;;;;;0.30;0.30;;;5.70;99.90;;;;;;4939569;29;20558;-79
2024/02/12 00:51:41;;;;;;;5.10;0.40;;;5.70;99.90;;;;;;4939014;29;20455;-79
2024/02/12 00:54:12;;;;;;;0.30;0.30;;;5.80;99.90;;;;;;4938981;29;20538;-79
2024/02/12 00:56:42;;;;;;;0.90;0.50;;;5.90;99.90;;;;;;4939072;29;20435;-79
2024/02/12 00:59:09;;;;;;;0.30;0.30;;;6.00;99.90;;;;;;4939152;29;20567;-79
2024/02/12 01:01:37;;;;;;;0.47;0.30;;;6.10;99.90;;;;;;4939039;29;20448;-79
2024/02/12 01:04:04;;;;;;;0.30;0.20;;;6.10;99.90;;;;;;4938948;29;20530;-79
2024/02/12 01:06:31;;;;;;;0.43;0.43;;;6.10;99.90;;;;;;4942298;29;20448;-79
2024/02/12 01:08:58;;;;;;;0.40;0.30;;;6.10;99.90;;;;;;4940126;29;20459;-79
2024/02/12 01:11:28;;;;;;;0.70;0.33;;;6.10;99.90;;;;;;4939805;29;20478;-79
2024/02/12 01:13:55;;;;;;;0.30;0.30;;;6.10;99.90;;;;;;4940452;29;20562;-79
2024/02/12 01:16:22;;;;;;;1.30;0.80;;;6.00;99.90;;;;;;4939954;29;20451;-79
2024/02/12 01:18:50;;;;;;;1.73;0.60;;;5.90;99.90;;;;;;4939811;29;20487;-79
2024/02/12 01:21:17;;;;;;;0.37;0.37;;;6.00;99.90;;;;;;4939709;29;20941;-79
2024/02/12 01:23:44;;;;;;;0.40;0.33;;;6.10;99.90;;;;;;4939593;29;20471;-79
2024/02/12 01:26:13;;;;;;;0.30;0.30;;;6.10;99.90;;;;;;4941181;29;20459;-78
2024/02/12 01:28:41;;;;;;;1.13;0.70;;;6.20;99.90;;;;;;4938708;29;20554;-79
2024/02/12 01:31:10;;;;;;;0.40;0.40;;;6.20;99.90;;;;;;4938411;29;20454;-79
2024/02/12 01:33:38;;;;;;;0.33;0.33;;;6.10;99.90;;;;;;4938787;29;20526;-79
2024/02/12 01:36:07;;;;;;;0.30;0.30;;;6.10;99.90;;;;;;4938243;29;20869;-79
2024/02/12 01:38:34;;;;;;;0.30;0.20;;;6.10;99.90;;;;;;4938715;29;20461;-79
2024/02/12 01:41:01;;;;;;;0.30;0.30;;;6.10;99.90;;;;;;4938093;29;20569;-79
2024/02/12 01:43:31;;;;;;;0.30;0.30;;;6.10;99.90;;;;;;4938037;29;20446;-79
2024/02/12 01:46:00;;;;;;;0.30;0.30;;;6.00;99.90;;;;;;4937948;29;20447;-79
2024/02/12 01:48:29;;;;;;;0.30;0.30;;;6.00;99.90;;;;;;4937994;29;20443;-79
2024/02/12 01:50:58;;;;;;;0.90;0.40;;;6.00;99.90;;;;;;4938255;29;20570;-79
2024/02/12 01:53:25;;;;;;;2.50;0.33;;;6.00;99.90;;;;;;4937681;29;20483;-79
2024/02/12 01:55:52;;;;;;;0.40;0.30;;;6.00;99.90;;;;;;4937832;29;20449;-79
2024/02/12 01:58:19;;;;;;;0.37;0.30;;;6.00;99.90;;;;;;4937997;29;20454;-79
2024/02/12 02:00:48;;;;;;;0.40;0.30;;;6.00;99.90;;;;;;4937705;29;20479;-79
2024/02/12 02:03:17;;;;;;;0.30;0.30;;;6.10;99.90;;;;;;4937591;29;20481;-79
2024/02/12 02:05:45;;;;;;;0.30;0.30;;;6.10;99.90;;;;;;4937859;29;20482;-79
2024/02/12 02:08:11;;;;;;;0.40;0.30;;;6.20;99.90;;;;;;4937682;29;20884;-79
2024/02/12 02:10:39;;;;;;;0.30;0.30;;;6.20;99.90;;;;;;4937614;29;20502;-79
2024/02/12 02:13:06;;;;;;;0.30;0.30;;;6.30;99.90;;;;;;4937127;29;20979;-79
2024/02/12 02:15:33;;;;;;;2.87;0.40;;;6.20;99.90;;;;;;4937647;29;20458;-79
2024/02/12 02:18:04;;;;;;;0.30;0.30;;;6.20;99.90;;;;;;4937318;29;20683;-79
2024/02/12 02:20:35;;;;;;;0.30;0.30;;;6.20;99.90;;;;;;4937465;29;20467;-79
2024/02/12 02:23:02;;;;;;;0.50;0.50;;;6.30;99.90;;;;;;4936958;29;20931;-79
2024/02/12 02:25:30;;;;;;;0.60;0.50;;;6.30;99.90;;;;;;4937338;29;20895;-79
2024/02/12 02:27:57;;;;;;;0.37;0.33;;;6.30;99.90;;;;;;4937389;29;20451;-79
2024/02/12 02:30:24;;;;;;;0.40;0.40;;;6.30;99.90;;;;;;4936987;29;20816;-79
2024/02/12 02:32:51;;;;;;;0.30;0.27;;;6.30;99.90;;;;;;4937408;29;20451;-79
2024/02/12 02:35:18;;;;;;;0.30;0.30;;;6.30;99.90;;;;;;4936829;29;20517;-79
2024/02/12 02:37:44;;;;;;;0.30;0.30;;;6.40;99.90;;;;;;4936501;29;20455;-79
2024/02/12 02:40:11;;;;;;;1.03;0.40;;;6.30;99.90;;;;;;4937089;29;20463;-79
2024/02/12 02:42:39;;;;;;;0.60;0.40;;;6.30;99.90;;;;;;4937082;29;20462;-79
2024/02/12 02:45:07;;;;;;;0.30;0.30;;;6.30;99.90;;;;;;4937200;29;20443;-79
2024/02/12 02:47:40;;;;;;;0.30;0.30;;;6.30;99.90;;;;;;4936792;29;20918;-79
2024/02/12 02:50:10;;;;;;;0.30;0.20;;;6.20;99.90;;;;;;4936899;29;20471;-79
2024/02/12 02:52:39;;;;;;;0.30;0.30;;;6.20;99.90;;;;;;4936918;29;20788;-79
2024/02/12 02:55:07;;;;;;;0.40;0.40;;;6.20;99.90;;;;;;4936667;29;20494;-79
2024/02/12 02:57:34;;;;;;;0.30;0.30;;;6.20;99.90;;;;;;4936912;29;20455;-79
2024/02/12 03:00:05;;;;;;;0.30;0.20;;;6.10;99.90;;;;;;4936648;29;20466;-79
2024/02/12 03:02:32;;;;;;;0.50;0.30;;;6.10;99.90;;;;;;4936544;29;20487;-79
2024/02/12 03:04:59;;;;;;;0.30;0.30;;;6.10;99.90;;;;;;4936748;29;20458;-79
2024/02/12 03:07:25;;;;;;;0.40;0.40;;;6.00;99.90;;;;;;4936656;29;20451;-79
2024/02/12 03:09:52;;;;;;;0.30;0.30;;;6.10;99.90;;;;;;4936134;29;20487;-79
2024/02/12 03:12:19;;;;;;;0.30;0.30;;;6.10;99.90;;;;;;4936453;29;20435;-79
2024/02/12 03:14:46;;;;;;;0.30;0.23;;;6.10;99.90;;;;;;4936377;29;20489;-79
2024/02/12 03:17:14;;;;;;;0.30;0.30;;;6.10;99.90;;;;;;4936621;29;20451;-79
2024/02/12 03:19:40;;;;;;;0.40;0.30;;;6.20;99.90;;;;;;4940447;29;20478;-79
2024/02/12 03:22:08;;;;;;;0.30;0.30;;;6.20;99.90;;;;;;4938448;29;20565;-79
2024/02/12 03:24:35;;;;;;;0.30;0.30;;;6.30;99.90;;;;;;4938917;29;20555;-79
2024/02/12 03:27:01;;;;;;;0.30;0.20;;;6.30;99.90;;;;;;4937835;29;20546;-79
2024/02/12 03:29:30;;;;;;;0.30;0.27;;;6.20;99.90;;;;;;4937786;29;20474;-79
2024/02/12 03:31:57;;;;;;;0.47;0.30;;;6.30;99.90;;;;;;4937905;29;20462;-79
2024/02/12 03:34:29;;;;;;;0.30;0.30;;;6.30;99.90;;;;;;4937178;29;20936;-79
2024/02/12 03:36:56;;;;;;;0.30;0.30;;;6.30;99.90;;;;;;4937747;29;20461;-79
2024/02/12 03:39:24;;;;;;;0.30;0.30;;;6.30;99.90;;;;;;4942031;29;20474;-79
2024/02/12 03:41:51;;;;;;;0.30;0.20;;;6.30;99.90;;;;;;4941456;29;20471;-77
2024/02/12 03:44:17;;;;;;;0.30;0.30;;;6.30;99.90;;;;;;4936631;29;20455;-79
2024/02/12 03:46:46;;;;;;;0.30;0.20;;;6.40;99.90;;;;;;4936116;29;20444;-79
2024/02/12 04:00:16;;;;;;;0.40;0.30;;;6.20;99.90;;;;;;4939785;29;20450;-79
2024/02/12 04:02:43;;;;;;;0.40;0.30;;;6.30;99.90;;;;;;4939506;29;20502;-79
2024/02/12 04:05:10;;;;;;;0.37;0.27;;;6.30;99.90;;;;;;4939701;29;20446;-79
2024/02/12 04:07:39;;;;;;;0.30;0.30;;;6.30;99.90;;;;;;4939792;29;20447;-79
2024/02/12 04:10:10;;;;;;;0.97;0.30;;;6.30;99.90;;;;;;4939688;29;20525;-79
2024/02/12 04:12:37;;;;;;;0.30;0.30;;;6.40;99.90;;;;;;4939449;29;20435;-79
2024/02/12 04:15:05;;;;;;;0.60;0.60;;;6.30;99.90;;;;;;4939507;29;20899;-79
2024/02/12 04:17:32;;;;;;;0.30;0.30;;;6.30;99.90;;;;;;4939500;29;20455;-79
2024/02/12 04:19:59;;;;;;;0.33;0.33;;;6.30;99.90;;;;;;4939864;29;20487;-79
2024/02/12 04:22:26;;;;;;;0.30;0.20;;;6.20;99.90;;;;;;4939417;29;20462;-79
2024/02/12 04:24:55;;;;;;;0.30;0.20;;;6.30;99.90;;;;;;4939440;29;20515;-79
2024/02/12 04:27:22;;;;;;;0.30;0.30;;;6.30;99.90;;;;;;4939609;29;20475;-79
2024/02/12 04:29:49;;;;;;;0.30;0.30;;;6.30;99.90;;;;;;4939098;29;20473;-79
2024/02/12 04:32:15;;;;;;;1.30;0.50;;;6.30;99.90;;;;;;4939797;29;20447;-79
2024/02/12 04:34:42;;;;;;;0.40;0.30;;;6.30;99.90;;;;;;4939857;29;20483;-79
2024/02/12 04:37:11;;;;;;;0.40;0.30;;;6.30;99.90;;;;;;4939956;29;20447;-79
2024/02/12 04:39:38;;;;;;;0.30;0.30;;;6.30;99.90;;;;;;4939233;29;20463;-79
2024/02/12 04:42:06;;;;;;;0.40;0.30;;;6.20;99.90;;;;;;4939308;29;20510;-79
2024/02/12 04:44:33;;;;;;;0.30;0.30;;;6.20;99.90;;;;;;4939292;29;20484;-79
2024/02/12 04:47:00;;;;;;;0.30;0.30;;;6.10;99.90;;;;;;4939227;29;20446;-79
2024/02/12 04:49:27;;;;;;;0.30;0.20;;;6.10;99.90;;;;;;4939406;29;20837;-79
2024/02/12 04:51:54;;;;;;;0.30;0.20;;;6.00;99.90;;;;;;4939824;29;20494;-79
2024/02/12 04:54:23;;;;;;;0.40;0.40;;;5.90;99.90;;;;;;4939131;29;20483;-79
2024/02/12 04:56:49;;;;;;;0.40;0.30;;;5.90;99.90;;;;;;4939900;29;20479;-79
2024/02/12 04:59:19;;;;;;;0.30;0.30;;;5.80;99.90;;;;;;4938958;29;21009;-79
2024/02/12 05:01:46;;;;;;;0.30;0.20;;;5.80;99.90;;;;;;4938688;29;20869;-79
2024/02/12 05:04:13;;;;;;;0.30;0.30;;;5.70;99.90;;;;;;4938880;29;20443;-79
2024/02/12 05:06:41;;;;;;;0.30;0.30;;;5.70;99.90;;;;;;4938698;29;21024;-79
2024/02/12 05:09:10;;;;;;;0.30;0.30;;;5.70;99.90;;;;;;4938842;29;20479;-79
2024/02/12 05:11:37;;;;;;;0.47;0.47;;;5.60;99.90;;;;;;4938494;29;20562;-79
2024/02/12 05:14:04;;;;;;;0.50;0.40;;;5.50;99.90;;;;;;4938862;29;20455;-79
2024/02/12 05:16:34;;;;;;;0.30;0.30;;;5.50;99.90;;;;;;4938897;29;20447;-79
2024/02/12 05:24:30;;;;;;;0.30;0.20;;;5.50;99.90;;;;;;4938980;29;20419;-79
2024/02/12 05:26:57;;;;;;;0.67;0.30;;;5.50;99.90;;;;;;4938646;29;20463;-79
2024/02/12 05:29:24;;;;;;;0.30;0.30;;;5.50;99.90;;;;;;4939254;29;20467;-79
2024/02/12 05:31:52;;;;;;;0.30;0.20;;;5.50;99.90;;;;;;4941974;29;20462;-79
2024/02/12 05:34:20;;;;;;;0.30;0.20;;;5.40;99.90;;;;;;4939866;29;20495;-78
2024/02/12 05:36:47;;;;;;;0.30;0.30;;;5.40;99.90;;;;;;4939612;29;20967;-78
2024/02/12 05:39:15;;;;;;;0.50;0.40;;;5.40;99.90;;;;;;4939352;29;20471;-79
2024/02/12 05:41:42;;;;;;;0.40;0.30;;;5.40;99.90;;;;;;4939381;29;20546;-79
2024/02/12 05:44:09;;;;;;;0.30;0.30;;;5.40;99.90;;;;;;4939190;29;20452;-78
2024/02/12 05:46:36;;;;;;;0.80;0.40;;;5.30;99.90;;;;;;4938880;29;20458;-79
2024/02/12 05:49:06;;;;;;;0.30;0.30;;;5.30;99.90;;;;;;4938655;29;20993;-79
2024/02/12 05:51:33;;;;;;;0.30;0.20;;;5.30;99.90;;;;;;4938972;29;20554;-79
2024/02/12 05:54:00;;;;;;;0.40;0.33;;;5.20;99.90;;;;;;4945413;29;20461;-79
2024/02/12 05:56:26;;;;;;;0.63;0.63;;;5.20;99.90;;;;;;4939930;29;20530;-79
2024/02/12 05:58:53;;;;;;;0.30;0.30;;;5.20;99.90;;;;;;4938448;29;20458;-79
2024/02/12 06:01:20;;;;;;;0.37;0.30;;;5.20;99.90;;;;;;4938305;29;20451;-79
2024/02/12 06:03:47;;;;;;;0.40;0.30;;;5.20;99.90;;;;;;4938658;29;20459;-79
2024/02/12 06:06:16;;;;;;;0.50;0.30;;;5.20;99.90;;;;;;4937866;29;20447;-79
2024/02/12 06:08:42;;;;;;;0.40;0.30;;;5.20;99.90;;;;;;4937289;29;20469;-79
2024/02/12 06:11:09;;;;;;;0.40;0.30;;;5.20;99.90;;;;;;4936816;29;20544;-79
2024/02/12 06:13:36;;;;;;;1.07;0.50;;;5.20;99.90;;;;;;4936885;29;20477;-79
2024/02/12 06:16:03;;;;;;;1.10;0.30;;;5.20;99.90;;;;;;4937343;29;20497;-79
2024/02/12 06:18:30;;;;;;;0.30;0.30;;;5.30;99.90;;;;;;4937286;29;20447;-79
2024/02/12 06:20:57;;;;;;;0.43;0.40;;;5.30;99.90;;;;;;4937054;29;20466;-79
2024/02/12 06:23:26;;;;;;;0.40;0.30;;;5.30;99.90;;;;;;4937140;29;20450;-79
2024/02/12 06:25:53;;;;;;;0.80;0.40;;;5.40;99.90;;;;;;4937083;29;20461;-79
2024/02/12 06:28:19;;;;;;;0.30;0.30;;;5.40;99.90;;;;;;4937064;29;20826;-79
2024/02/12 06:30:47;;;;;;;1.13;0.50;;;5.40;99.90;;;;;;4936972;29;20883;-79
2024/02/12 06:33:13;;;;;;;0.40;0.30;;;5.40;99.90;;;;;;4937100;29;20479;-79
2024/02/12 06:35:40;;;;;;;0.50;0.40;;;5.40;99.90;;;;;;4937035;29;20487;-79
2024/02/12 06:38:07;;;;;;;0.87;0.40;;;5.50;99.90;;;;;;4936890;29;20463;-79
2024/02/12 06:40:35;;;;;;;0.40;0.40;;;5.50;99.90;;;;;;4936823;29;20470;-79
2024/02/12 06:43:04;;;;;;;0.50;0.40;;;5.60;99.90;;;;;;4937533;29;20830;-79
2024/02/12 06:45:31;;;;;;;0.40;0.40;;;5.60;99.90;;;;;;4937988;29;20818;-79
2024/02/12 06:47:58;;;;;;;0.30;0.20;;;5.70;99.90;;;;;;4937111;29;20459;-79
2024/02/12 06:50:25;;;;;;;2.00;0.80;;;5.70;99.90;;;;;;4936543;29;20471;-78
2024/02/12 06:52:52;;;;;;;0.30;0.30;;;5.60;99.90;;;;;;4938741;29;20455;-79
2024/02/12 06:55:21;;;;;;;0.30;0.30;;;5.70;99.90;;;;;;4938324;29;20522;-79
2024/02/12 06:57:49;;;;;;;0.40;0.37;;;5.80;99.90;;;;;;4937304;29;20879;-79
2024/02/12 07:00:16;;;;;;;0.43;0.33;;;5.70;99.90;;;;;;4937477;29;20467;-79
2024/02/12 07:02:43;;;;;;;0.30;0.30;;;5.80;99.90;;;;;;4937365;29;20451;-79
2024/02/12 07:05:12;;;;;;;0.77;0.50;;;5.90;99.90;;;;;;4936887;29;20458;-78
2024/02/12 07:07:39;;;;;;;0.30;0.23;;;6.00;99.90;;;;;;4936934;29;20562;-79
2024/02/12 07:10:06;;;;;;;0.60;0.60;;;6.00;99.90;;;;;;4936510;29;20486;-79
2024/02/12 07:12:33;;;;;;;0.43;0.30;;;6.00;99.90;;;;;;4937460;29;20454;-79
2024/02/12 07:15:02;;;;;;;0.40;0.33;;;6.00;99.90;;;;;;4937402;29;20482;-79
2024/02/12 07:17:30;;;;;;;0.30;0.27;;;6.10;99.90;;;;;;4937455;29;20490;-79
2024/02/12 07:19:57;;;;;;;0.40;0.40;;;6.10;99.90;;;;;;4937322;29;20475;-78
2024/02/12 07:22:24;;;;;;;0.30;0.30;;;6.10;99.90;;;;;;4937130;29;20455;-79
2024/02/12 07:24:51;;;;;;;0.30;0.30;;;6.20;99.90;;;;;;4942908;29;20443;-78
2024/02/12 07:27:18;;;;;;;0.30;0.30;;;6.20;99.90;;;;;;4943500;29;20454;-78
2024/02/12 07:29:45;;;;;;;0.40;0.40;;;6.20;99.90;;;;;;4943549;29;20474;-79
2024/02/12 07:32:14;;;;;;;1.17;0.40;;;6.30;99.90;;;;;;4943494;29;20462;-78
2024/02/12 07:34:41;;;;;;;0.50;0.30;;;6.40;99.90;;;;;;4943108;29;20455;-78
2024/02/12 07:37:08;;;;;;;0.50;0.40;;;6.50;99.90;;;;;;4942902;29;20451;-78
2024/02/12 07:39:38;;;;;;;0.40;0.30;;;6.50;99.90;;;;;;4943616;29;20529;-78
2024/02/12 07:42:06;;;;;;;0.63;0.40;;;6.60;99.90;;;;;;4945049;29;20522;-78
2024/02/12 07:44:33;;;;;;;0.80;0.43;;;6.60;99.90;;;;;;4945283;29;20840;-79
2024/02/12 07:47:02;;;;;;;0.40;0.40;;;6.70;99.90;;;;;;4944175;29;20454;-79
2024/02/12 07:49:31;;;;;;;1.63;0.40;;;6.80;99.90;;;;;;4943453;29;20466;-79
2024/02/12 07:51:59;;;;;;;0.83;0.40;;;6.80;99.90;;;;;;4943962;29;20454;-78
2024/02/12 07:54:26;;;;;;;0.30;0.30;;;6.90;99.90;;;;;;4943770;29;20454;-78
2024/02/12 07:56:53;;;;;;;0.40;0.40;;;6.80;99.90;;;;;;4943888;29;20860;-78
2024/02/12 07:59:20;;;;;;;0.50;0.40;;;6.70;99.90;;;;;;4944089;29;20490;-79
2024/02/12 08:01:47;;;;;;;0.70;0.70;;;6.70;99.90;;;;;;4944807;29;20447;-79
2024/02/12 08:04:13;;;;;;;2.97;0.43;;;6.60;99.90;;;;;;4945730;29;20447;-78
2024/02/12 08:06:41;;;;;;;0.80;0.50;;;6.50;99.90;;;;;;4953814;29;20510;-79
2024/02/12 08:09:10;;;;;;;0.40;0.30;;;6.50;99.90;;;;;;4943733;29;20466;-79
2024/02/12 08:11:37;;;;;;;0.63;0.57;;;6.40;99.90;;;;;;4943541;29;20850;-80
2024/02/12 08:14:09;;;;;;;0.97;0.63;;;6.50;99.90;;;;;;4944396;29;20490;-79
2024/02/12 08:16:35;;;;;;;0.77;0.30;;;6.50;99.90;;;;;;4945881;29;20474;-79
2024/02/12 08:19:02;;;;;;;0.40;0.40;;;6.60;99.90;;;;;;4945403;29;20554;-79
2024/02/12 08:21:29;;;;;;;0.40;0.40;;;6.60;99.90;;;;;;4944864;29;20455;-79
2024/02/12 08:23:57;;;;;;;0.40;0.30;;;6.80;99.90;;;;;;4944761;29;20470;-79
2024/02/12 08:26:23;;;;;;;0.90;0.40;;;6.90;99.90;;;;;;4945325;29;20474;-79
2024/02/12 08:28:52;;;;;;;0.40;0.30;;;7.00;99.90;;;;;;4945179;29;20461;-79
2024/02/12 08:31:19;;;;;;;0.40;0.40;;;7.20;99.90;;;;;;4944598;29;20450;-79
2024/02/12 08:33:47;;;;;;;0.60;0.40;;;7.30;99.90;;;;;;4945153;29;20454;-79
2024/02/12 08:36:14;;;;;;;0.40;0.30;;;7.50;99.90;;;;;;4940534;29;21030;-79
2024/02/12 08:38:41;;;;;;;0.60;0.40;;;7.60;99.90;;;;;;4941690;29;20467;-78
2024/02/12 08:41:09;;;;;;;0.30;0.30;;;7.70;99.90;;;;;;4941308;29;20455;-78
2024/02/12 08:43:36;;;;;;;0.30;0.30;;;7.90;99.90;;;;;;4940939;29;20450;-78
2024/02/12 08:46:03;;;;;;;0.40;0.30;;;8.10;99.90;;;;;;4941415;29;20787;-78
2024/02/12 08:48:30;;;;;;;1.83;0.30;;;8.30;99.90;;;;;;4941261;29;20467;-78
2024/02/12 08:50:58;;;;;;;0.90;0.40;;;8.60;99.90;;;;;;4941607;29;20475;-79
2024/02/12 08:53:25;;;;;;;0.50;0.40;;;9.00;99.90;;;;;;4941487;29;20945;-79
2024/02/12 08:55:52;;;;;;;1.33;0.40;;;9.10;99.90;;;;;;4941669;29;20913;-79
2024/02/12 08:58:20;;;;;;;0.40;0.40;;;9.20;99.90;;;;;;4941803;29;20447;-79
2024/02/12 09:00:47;;;;;;;0.53;0.40;;;9.30;99.90;;;;;;4941666;29;20471;-79
2024/02/12 09:03:15;;;;;;;0.47;0.40;;;9.50;99.90;;;;;;4942179;29;20459;-79
2024/02/12 09:05:41;;;;;;;0.50;0.50;;;9.60;99.90;;;;;;4942049;29;21055;-79
2024/02/12 09:08:08;;;;;;;0.60;0.40;;;10.00;99.90;;;;;;4942288;29;20991;-79
2024/02/12 09:10:35;;;;;;;0.57;0.40;;;10.40;99.90;;;;;;4942013;29;20487;-79
2024/02/12 09:13:05;;;;;;;0.60;0.60;;;10.80;99.90;;;;;;4942024;29;20818;-79
2024/02/12 09:15:33;;;;;;;1.30;0.40;;;11.10;99.90;;;;;;4942266;29;20503;-79
2024/02/12 09:17:59;;;;;;;0.40;0.40;;;11.50;99.90;;;;;;4943160;29;20447;-79
2024/02/12 09:20:25;;;;;;;0.50;0.50;;;11.90;99.90;;;;;;4941675;29;20474;-79
2024/02/12 09:22:53;;;;;;;0.50;0.50;;;12.00;99.90;;;;;;4942076;29;20559;-79
2024/02/12 09:25:20;;;;;;;0.37;0.37;;;12.20;99.90;;;;;;4942149;29;20487;-79
2024/02/12 09:27:47;;;;;;;0.43;0.43;;;12.30;99.90;;;;;;4942057;29;20435;-79
2024/02/12 09:30:15;;;;;;;0.40;0.37;;;12.40;99.90;;;;;;4942110;29;20490;-79
2024/02/12 09:32:44;;;;;;;1.47;0.43;;;12.50;99.90;;;;;;4941976;29;20454;-79
2024/02/12 09:35:11;;;;;;;0.47;0.40;;;12.70;99.90;;;;;;4942122;29;20539;-79
2024/02/12 09:37:39;;;;;;;1.37;0.50;;;12.70;99.90;;;;;;4941784;29;20451;-79
2024/02/12 09:40:07;;;;;;;0.77;0.60;;;12.50;99.90;;;;;;4941430;29;20470;-79
2024/02/12 09:42:35;;;;;;;0.60;0.60;;;12.30;99.90;;;;;;4941858;29;20455;-79
2024/02/12 09:45:07;;;;;;;4.10;0.40;;;12.20;99.90;;;;;;4942031;29;20443;-79
2024/02/12 09:47:36;;;;;;;0.83;0.67;;;12.20;99.90;;;;;;4942594;29;20436;-79
2024/02/12 09:50:07;;;;;;;0.43;0.40;;;12.10;99.90;;;;;;4941729;29;20554;-79
2024/02/12 09:52:35;;;;;;;0.60;0.60;;;12.40;99.90;;;;;;4943101;29;20498;-79
2024/02/12 09:55:04;;;;;;;0.60;0.60;;;12.40;99.90;;;;;;4943128;29;20458;-79
2024/02/12 09:57:31;;;;;;;1.70;0.50;;;12.40;99.90;;;;;;4941497;29;20507;-80
2024/02/12 09:59:58;;;;;;;0.40;0.40;;;12.40;99.90;;;;;;4942846;29;20471;-79
2024/02/12 10:02:25;;;;;;;0.67;0.43;;;12.30;99.90;;;;;;4942571;29;20451;-79
2024/02/12 10:04:52;;;;;;;0.40;0.40;;;12.50;99.90;;;;;;4941029;29;20416;-79
2024/02/12 10:07:20;;;;;;;0.80;0.67;;;12.50;99.90;;;;;;4941448;29;20443;-79
2024/02/12 10:09:47;;;;;;;0.53;0.53;;;12.50;99.90;;;;;;4940941;29;20474;-79
2024/02/12 10:12:14;;;;;;;0.40;0.40;;;12.40;99.90;;;;;;4941395;29;20440;-79
2024/02/12 10:14:42;;;;;;;2.83;0.77;;;12.30;99.90;;;;;;4941960;29;20447;-79
2024/02/12 10:17:08;;;;;;;1.17;0.60;;;12.10;99.90;;;;;;4949255;29;20490;-78
2024/02/12 10:19:37;;;;;;;0.57;0.40;;;11.80;99.90;;;;;;4940985;29;20470;-79
2024/02/12 10:22:04;;;;;;;0.50;0.50;;;11.30;99.90;;;;;;4939081;29;20455;-79
2024/02/12 10:24:32;;;;;;;1.03;0.43;;;10.90;99.90;;;;;;4938254;29;20451;-79
2024/02/12 10:26:59;;;;;;;0.60;0.50;;;10.60;99.90;;;;;;4939618;29;20447;-79
2024/02/12 10:29:27;;;;;;;1.03;0.57;;;10.50;99.90;;;;;;4939981;29;20467;-79
2024/02/12 10:31:55;;;;;;;0.40;0.33;;;10.30;99.90;;;;;;4939844;29;20925;-79
2024/02/12 10:34:28;;;;;;;0.73;0.70;;;10.30;99.90;;;;;;4940228;29;20483;-79
2024/02/12 10:36:56;;;;;;;4.83;0.80;;;10.80;99.90;;;;;;4940265;29;20499;-79
2024/02/12 10:39:25;;;;;;;0.40;0.37;;;11.40;99.90;;;;;;4941336;29;20502;-78
2024/02/12 10:41:56;;;;;;;0.50;0.40;;;11.80;99.90;;;;;;4941795;29;20432;-79
2024/02/12 10:44:24;;;;;;;0.50;0.40;;;12.00;99.90;;;;;;4940542;29;20431;-79
2024/02/12 10:46:51;;;;;;;0.70;0.40;;;11.90;99.90;;;;;;4940248;29;20444;-79
2024/02/12 10:49:18;;;;;;;0.40;0.40;;;11.90;99.90;;;;;;4939230;29;21040;-79
2024/02/12 10:51:46;;;;;;;0.97;0.57;;;11.70;99.90;;;;;;4939397;29;20466;-79
2024/02/12 10:54:13;;;;;;;0.50;0.40;;;11.30;99.90;;;;;;4939387;29;20459;-79
2024/02/12 10:56:40;;;;;;;0.67;0.60;;;11.10;99.90;;;;;;4938990;29;20487;-79
2024/02/12 10:59:14;;;;;;;0.40;0.40;;;10.90;99.90;;;;;;4938156;29;20984;-79
2024/02/12 11:01:41;;;;;;;0.60;0.40;;;10.60;99.90;;;;;;4939114;29;20439;-79
2024/02/12 11:04:14;;;;;;;0.50;0.40;;;10.50;99.90;;;;;;4938902;29;20501;-79
2024/02/12 11:06:41;;;;;;;7.90;0.40;;;10.50;99.90;;;;;;4938964;29;20458;-79
2024/02/12 11:09:09;;;;;;;0.37;0.33;;;10.50;99.90;;;;;;4938390;29;21008;-79
2024/02/12 11:11:44;;;;;;;0.63;0.30;;;10.60;99.90;;;;;;4938508;29;20506;-79
2024/02/12 11:14:14;;;;;;;0.97;0.40;;;10.70;99.90;;;;;;4938541;29;20450;-79
2024/02/12 11:16:41;;;;;;;0.67;0.40;;;10.70;99.90;;;;;;4937917;29;20995;-79
2024/02/12 11:19:14;;;;;;;0.40;0.30;;;10.80;99.90;;;;;;4938587;29;20470;-81
2024/02/12 11:21:41;;;;;;;0.30;0.30;;;11.00;99.90;;;;;;4938406;29;20440;-78
2024/02/12 11:24:09;;;;;;;0.37;0.30;;;11.00;99.90;;;;;;4937481;29;20834;-78
2024/02/12 11:26:39;;;;;;;1.80;0.60;;;11.00;99.90;;;;;;4937392;29;20439;-78
2024/02/12 11:29:06;;;;;;;0.30;0.30;;;10.90;99.90;;;;;;4937113;29;20466;-78
2024/02/12 11:31:37;;;;;;;2.60;0.30;;;10.80;99.90;;;;;;4937617;29;20490;-78
2024/02/12 11:34:11;;;;;;;0.40;0.30;;;10.90;99.90;;;;;;4937638;29;20435;-78
2024/02/12 11:36:38;;;;;;;0.37;0.37;;;10.90;99.90;;;;;;4937480;29;20509;-78
2024/02/12 11:39:07;;;;;;;0.70;0.30;;;10.90;99.90;;;;;;4936651;29;20972;-78
2024/02/12 11:41:33;;;;;;;0.97;0.37;;;11.00;99.90;;;;;;4936879;29;20436;-78
2024/02/12 11:44:05;;;;;;;0.70;0.50;;;11.00;99.90;;;;;;4936857;29;20455;-78
2024/02/12 11:46:32;;;;;;;1.47;0.40;;;11.00;99.90;;;;;;4936840;29;20446;-78
2024/02/12 11:49:06;;;;;;;0.30;0.30;;;11.00;99.90;;;;;;4937024;29;20450;-78
2024/02/12 11:51:35;;;;;;;0.30;0.30;;;11.00;99.90;;;;;;4937264;29;20785;-78
2024/02/12 11:54:02;;;;;;;0.73;0.40;;;10.80;99.90;;;;;;4936917;29;20494;-78
2024/02/12 11:56:29;;;;;;;0.30;0.30;;;10.70;99.90;;;;;;4936832;29;20494;-78
2024/02/12 11:58:58;;;;;;;0.90;0.43;;;10.60;99.90;;;;;;4936741;29;20472;-78
2024/02/12 12:01:25;;;;;;;0.30;0.30;;;10.60;99.90;;;;;;4936446;29;20439;-78
2024/02/12 12:03:52;;;;;;;3.33;0.80;;;10.60;99.90;;;;;;4937493;29;20462;-80
2024/02/12 12:06:22;;;;;;;0.73;0.40;;;10.40;99.90;;;;;;4936822;29;20471;-79
2024/02/12 12:08:49;;;;;;;0.40;0.30;;;10.30;99.90;;;;;;4938247;29;20538;-78
2024/02/12 12:11:19;;;;;;;0.30;0.30;;;10.30;99.90;;;;;;4939400;29;20514;-78
2024/02/12 12:13:46;;;;;;;0.40;0.30;;;10.40;99.90;;;;;;4941056;29;20463;-78
2024/02/12 12:16:14;;;;;;;0.30;0.30;;;10.50;99.90;;;;;;4940848;29;20455;-78
2024/02/12 12:18:41;;;;;;;0.30;0.30;;;10.60;99.90;;;;;;4940797;29;20451;-78
2024/02/12 12:21:08;;;;;;;0.40;0.40;;;10.70;99.90;;;;;;4940889;29;20453;-78
2024/02/12 12:23:36;;;;;;;1.10;0.43;;;10.70;99.90;;;;;;4940688;29;20482;-78
2024/02/12 12:26:04;;;;;;;0.30;0.30;;;10.70;99.90;;;;;;4940257;29;20478;-78
2024/02/12 12:28:32;;;;;;;0.40;0.30;;;10.70;99.90;;;;;;4940284;29;20447;-78
2024/02/12 12:31:01;;;;;;;0.40;0.30;;;10.60;99.90;;;;;;4949657;29;20507;-78
2024/02/12 12:33:28;;;;;;;0.30;0.30;;;10.60;99.90;;;;;;4939399;29;20486;-78
2024/02/12 12:35:56;;;;;;;0.30;0.30;;;10.40;99.90;;;;;;4939290;29;20443;-78
2024/02/12 12:38:23;;;;;;;2.87;0.30;;;10.20;99.90;;;;;;4939215;29;20483;-78
2024/02/12 12:40:51;;;;;;;0.30;0.30;;;10.20;99.90;;;;;;4940952;29;20973;-79
2024/02/12 12:43:18;;;;;;;0.30;0.30;;;10.20;99.90;;;;;;4940482;29;20454;-79
2024/02/12 12:45:45;;;;;;;0.40;0.37;;;10.20;99.90;;;;;;4938816;29;20436;-79
2024/02/12 12:48:12;;;;;;;0.40;0.40;;;10.30;99.90;;;;;;4939092;29;20514;-78
2024/02/12 12:50:39;;;;;;;0.40;0.40;;;10.50;99.90;;;;;;4938818;29;20518;-78
2024/02/12 12:53:08;;;;;;;0.40;0.30;;;10.60;99.90;;;;;;4939043;29;20450;-78
2024/02/12 12:55:36;;;;;;;0.40;0.30;;;10.70;99.90;;;;;;4939238;29;20486;-79
2024/02/12 12:58:05;;;;;;;0.30;0.30;;;10.80;99.90;;;;;;4940049;29;20496;-79
2024/02/12 13:00:36;;;;;;;0.30;0.30;;;10.90;99.90;;;;;;4939212;29;20478;-79
2024/02/12 13:03:03;;;;;;;0.33;0.30;;;11.00;99.90;;;;;;4939369;29;20508;-79
2024/02/12 13:05:29;;;;;;;0.30;0.27;;;11.00;99.90;;;;;;4939208;29;20478;-79
2024/02/12 13:07:57;;;;;;;0.40;0.30;;;11.10;99.90;;;;;;4939138;29;20447;-79
2024/02/12 13:10:24;;;;;;;0.30;0.30;;;11.10;99.90;;;;;;4938575;29;20860;-79
2024/02/12 13:12:50;;;;;;;0.40;0.40;;;11.00;99.90;;;;;;4938769;29;20980;-79